Time;durP1;ratioP1;P1;durP2;ratioP2;P2;SDS_P1;SDS_P2;PMS_P1;PMS_P2;Temp;Humidity;BMP_temperature;BMP_pressure;BME280_temperature;BME280_humidity;BME280_pressure;Samples;Min_cycle;Max_cycle;Signal;HPM_P1;HPM_P2
2022/01/14 00:02:06;;;;;;;6.15;1.80;;;3.90;99.90;;;3.58;100.00;98144.66;4975791;28;129282;-70
2022/01/14 00:04:35;;;;;;;4.47;1.67;;;3.90;99.90;;;3.58;100.00;98164.25;4974080;28;130068;-70
2022/01/14 00:07:04;;;;;;;4.65;1.92;;;4.00;99.90;;;3.53;100.00;98167.00;4975262;28;125640;-70
2022/01/14 00:09:34;;;;;;;4.97;1.70;;;4.00;99.90;;;3.57;100.00;98164.56;4974478;28;126364;-70
2022/01/14 00:12:10;;;;;;;4.95;1.58;;;3.90;99.90;;;3.55;100.00;98156.81;4975862;28;130189;-70
2022/01/14 00:14:42;;;;;;;3.95;1.52;;;4.00;99.90;;;3.68;100.00;98155.19;4991056;28;130034;-70
2022/01/14 00:17:13;;;;;;;3.47;1.52;;;4.00;99.90;;;3.65;100.00;98147.75;4974375;28;125794;-69
2022/01/14 00:19:44;;;;;;;4.55;1.40;;;4.00;99.90;;;3.65;100.00;98171.13;4991590;28;125308;-70
2022/01/14 00:22:16;;;;;;;3.47;1.38;;;4.00;99.90;;;3.70;100.00;98168.31;4974902;28;131074;-70
2022/01/14 00:33:09;;;;;;;4.25;1.30;;;4.10;99.90;;;3.69;100.00;98142.56;4975645;28;129064;-70
2022/01/14 00:35:41;;;;;;;2.83;1.25;;;4.10;99.90;;;3.72;100.00;98121.28;4973743;28;131964;-70
2022/01/14 00:38:11;;;;;;;2.25;1.10;;;4.00;99.90;;;3.63;100.00;98133.03;4987023;28;126137;-71
2022/01/14 00:40:39;;;;;;;2.88;1.30;;;3.90;99.90;;;3.68;100.00;98109.59;4975197;28;126693;-71
2022/01/14 00:43:09;;;;;;;3.05;1.25;;;3.90;99.90;;;3.63;100.00;98103.53;4976263;28;129799;-71
2022/01/14 00:45:41;;;;;;;2.80;1.20;;;3.90;99.90;;;3.63;100.00;98090.09;4975491;28;129450;-70
2022/01/14 00:48:10;;;;;;;2.80;1.20;;;3.80;99.90;;;3.57;100.00;98090.22;4991615;28;125288;-70
2022/01/14 00:50:41;;;;;;;2.13;1.10;;;3.90;99.90;;;3.54;100.00;98103.44;4974721;28;127147;-70
2022/01/14 00:53:10;;;;;;;4.57;1.73;;;3.80;99.90;;;3.50;100.00;98092.50;4975902;28;129803;-70
2022/01/14 00:55:48;;;;;;;1.98;0.98;;;3.70;99.90;;;3.48;100.00;98075.13;4974374;28;128253;-70
2022/01/14 01:01:05;;;;;;;1.92;0.90;;;3.70;99.90;;;3.52;100.00;98042.03;4973373;28;125884;-70
2022/01/14 01:03:34;;;;;;;2.38;1.10;;;3.70;99.90;;;3.48;100.00;98046.41;4973160;28;130880;-70
2022/01/14 01:06:03;;;;;;;2.55;1.30;;;3.70;99.90;;;3.51;100.00;98040.44;4976000;28;129700;-70
2022/01/14 01:08:33;;;;;;;5.72;1.40;;;3.70;99.90;;;3.48;100.00;98046.41;4973216;28;125732;-70
2022/01/14 01:11:04;;;;;;;2.17;1.20;;;3.70;99.90;;;3.54;100.00;98047.13;4991869;28;125369;-71
2022/01/14 01:13:37;;;;;;;2.88;1.10;;;3.70;99.90;;;3.57;100.00;98028.53;4990573;28;129747;-70
2022/01/14 01:16:07;;;;;;;1.63;1.05;;;3.70;99.90;;;3.57;100.00;98025.84;4973556;28;129448;-68
2022/01/14 01:18:36;;;;;;;2.33;0.90;;;3.70;99.90;;;3.53;100.00;98014.09;4973348;28;125968;-70
2022/01/14 01:21:04;;;;;;;1.83;1.13;;;3.70;99.90;;;3.52;100.00;98031.31;4989451;28;125545;-70
2022/01/14 01:23:33;;;;;;;1.73;0.95;;;3.80;99.90;;;3.53;100.00;98022.16;4975092;28;128758;-69
2022/01/14 01:26:14;;;;;;;2.05;1.00;;;3.70;99.90;;;3.47;100.00;98012.63;4987329;28;129572;-69
2022/01/14 01:28:57;;;;;;;2.13;1.00;;;3.70;99.90;;;3.62;100.00;98008.06;4966395;28;126882;-69
2022/01/14 01:31:38;;;;;;;1.80;1.00;;;3.80;99.90;;;3.58;100.00;98014.03;4973239;28;126605;-69
2022/01/14 01:34:09;;;;;;;3.97;1.42;;;3.80;99.90;;;3.66;100.00;97996.41;4973744;28;130045;-69
2022/01/14 01:36:40;;;;;;;1.67;1.00;;;3.70;99.90;;;3.64;100.00;97995.13;4973913;28;128201;-69
2022/01/14 01:39:12;;;;;;;1.70;1.00;;;3.70;99.90;;;3.64;100.00;97995.91;4975053;28;127379;-69
2022/01/14 01:41:46;;;;;;;3.90;1.13;;;3.80;99.90;;;3.67;100.00;97994.50;4976287;28;125563;-70
2022/01/14 01:44:18;;;;;;;3.40;1.30;;;3.80;99.90;;;3.55;100.00;97977.06;4967239;28;129773;-69
2022/01/14 01:46:49;;;;;;;1.90;1.00;;;3.80;99.90;;;3.60;100.00;97987.69;4974645;28;130441;-69
2022/01/14 01:49:20;;;;;;;4.00;1.20;;;3.80;99.90;;;3.56;100.00;97977.84;4989517;28;124775;-69
2022/01/14 01:51:52;;;;;;;3.30;1.20;;;3.90;99.90;;;3.53;100.00;97987.28;4976922;28;125581;-69
2022/01/14 01:54:24;;;;;;;2.08;1.30;;;3.80;99.90;;;3.53;100.00;97973.09;4974658;28;130470;-69
2022/01/14 01:56:53;;;;;;;4.90;1.40;;;3.80;99.90;;;3.46;100.00;97978.88;4973376;28;129722;-69
2022/01/14 01:59:26;;;;;;;3.67;1.40;;;3.80;99.90;;;3.49;100.00;97959.50;4989309;28;125640;-70
2022/01/14 02:01:59;;;;;;;3.00;1.48;;;3.90;99.90;;;3.56;100.00;97943.75;4974132;28;124386;-70
2022/01/14 02:04:29;;;;;;;3.03;1.30;;;3.80;99.90;;;3.55;100.00;97934.16;4973947;28;129819;-70
2022/01/14 02:06:59;;;;;;;3.63;1.30;;;3.80;99.90;;;3.49;100.00;97930.00;4973185;28;129983;-69
2022/01/14 02:09:28;;;;;;;5.25;1.20;;;3.80;99.90;;;3.57;100.00;97917.75;4972667;28;126286;-70
2022/01/14 02:11:56;;;;;;;3.33;1.42;;;3.80;99.90;;;3.49;100.00;97905.84;4991225;28;125322;-69
2022/01/14 02:14:51;;;;;;;4.47;1.67;;;3.80;99.90;;;3.42;100.00;97910.84;4971428;28;130574;-70
2022/01/14 02:17:33;;;;;;;3.50;1.50;;;3.90;99.90;;;3.57;100.00;97905.13;4975314;28;129662;-70
2022/01/14 02:22:57;;;;;;;6.25;1.55;;;3.80;99.90;;;3.48;100.00;97896.22;4971049;28;126072;-70
2022/01/14 02:25:29;;;;;;;4.38;1.77;;;3.90;99.90;;;3.58;100.00;97912.09;4977019;28;129831;-70
2022/01/14 02:28:02;;;;;;;4.05;1.50;;;3.90;99.90;;;3.62;100.00;97903.44;4976618;28;130045;-69
2022/01/14 02:30:33;;;;;;;3.90;1.63;;;3.80;99.90;;;3.60;100.00;97907.19;4974391;28;125747;-69
2022/01/14 02:33:02;;;;;;;5.07;1.58;;;3.80;99.90;;;3.59;100.00;97902.91;4994163;28;124815;-69
2022/01/14 02:35:32;;;;;;;6.13;1.77;;;3.80;99.90;;;3.58;100.00;97897.84;4975267;28;129892;-69
2022/01/14 02:38:02;;;;;;;5.82;1.67;;;3.80;99.90;;;3.53;100.00;97888.03;4978373;28;129695;-69
2022/01/14 02:40:30;;;;;;;4.22;1.60;;;3.70;99.90;;;3.40;100.00;97883.53;4974210;28;125659;-69
2022/01/14 02:43:01;;;;;;;4.80;1.60;;;3.70;99.90;;;3.37;100.00;97887.59;4976500;28;126016;-69
2022/01/14 02:45:32;;;;;;;4.60;1.80;;;3.70;99.90;;;3.41;100.00;97871.69;4976193;28;129769;-69
2022/01/14 02:48:04;;;;;;;5.68;1.65;;;3.60;99.90;;;3.39;100.00;97871.22;4975897;28;129838;-69
2022/01/14 02:50:40;;;;;;;6.20;2.20;;;3.70;99.90;;;3.40;100.00;97878.16;4975503;28;125571;-69
2022/01/14 02:53:25;;;;;;;6.10;2.00;;;3.60;99.90;;;3.31;100.00;97871.94;4976449;28;125668;-69
2022/01/14 02:55:56;;;;;;;6.65;1.73;;;3.60;99.90;;;3.27;100.00;97873.63;4988082;28;130325;-69
2022/01/14 02:58:29;;;;;;;4.88;1.70;;;3.70;99.90;;;3.28;100.00;97869.88;4975719;28;130258;-69
2022/01/14 03:01:01;;;;;;;6.50;2.65;;;3.70;99.90;;;3.34;100.00;97860.63;4975351;28;125740;-69
2022/01/14 03:03:33;;;;;;;7.10;2.15;;;3.60;99.90;;;3.39;100.00;97857.81;4994134;28;125432;-70
2022/01/14 03:06:04;;;;;;;3.88;1.83;;;3.60;99.90;;;3.39;100.00;97855.13;4975858;28;129848;-70
2022/01/14 03:08:36;;;;;;;6.30;1.83;;;3.60;99.90;;;3.40;100.00;97848.66;4977454;28;129577;-70
2022/01/14 03:11:11;;;;;;;5.22;1.80;;;3.50;99.90;;;3.41;100.00;97842.19;4975531;28;126353;-70
2022/01/14 03:13:41;;;;;;;6.22;2.38;;;3.50;99.90;;;3.35;100.00;97808.56;4985525;28;125705;-70
2022/01/14 03:16:10;;;;;;;5.82;1.67;;;3.50;99.90;;;3.35;100.00;97809.34;4975832;28;130774;-70
2022/01/14 03:18:43;;;;;;;5.20;2.17;;;3.50;99.90;;;3.37;100.00;97822.47;4977047;28;129623;-70
2022/01/14 03:21:17;;;;;;;5.90;2.10;;;3.50;99.90;;;3.30;100.00;97811.34;4977798;28;125135;-70
2022/01/14 03:23:58;;;;;;;6.03;2.20;;;3.50;99.90;;;3.26;100.00;97808.50;5011059;28;123998;-70
2022/01/14 03:26:27;;;;;;;4.53;1.52;;;3.60;99.90;;;3.30;100.00;97803.31;4974770;28;130194;-70
2022/01/14 03:28:55;;;;;;;6.30;1.90;;;3.50;99.90;;;3.29;100.00;97793.69;4989729;28;128927;-70
2022/01/14 03:31:24;;;;;;;7.78;2.33;;;3.50;99.90;;;3.30;100.00;97776.50;4975210;28;126206;-70
2022/01/14 03:33:52;;;;;;;7.53;2.10;;;3.60;99.90;;;3.36;100.00;97768.03;4975816;28;125847;-70
2022/01/14 03:36:23;;;;;;;10.15;2.40;;;3.60;99.90;;;3.24;100.00;97763.22;4974472;28;129910;-69
2022/01/14 03:38:52;;;;;;;5.18;2.42;;;3.50;99.90;;;3.33;100.00;97743.72;4975580;28;129601;-70
2022/01/14 03:41:20;;;;;;;7.35;2.20;;;3.50;99.90;;;3.29;100.00;97748.09;4974164;28;127543;-70
2022/01/14 03:43:48;;;;;;;9.57;2.78;;;3.60;99.90;;;3.29;100.00;97732.00;4975542;28;126106;-69
2022/01/14 03:46:17;;;;;;;7.95;2.70;;;3.60;99.90;;;3.31;100.00;97711.84;4975859;28;130050;-70
2022/01/14 03:48:45;;;;;;;6.82;2.00;;;3.60;99.90;;;3.24;100.00;97701.56;4973602;28;130161;-70
2022/01/14 03:51:14;;;;;;;7.15;2.67;;;3.60;99.90;;;3.22;100.00;97684.97;4976542;28;126268;-70
2022/01/14 03:53:46;;;;;;;7.82;2.17;;;3.60;99.90;;;3.23;100.00;97686.56;4987421;28;125936;-70
2022/01/14 03:56:14;;;;;;;6.72;2.60;;;3.60;99.90;;;3.27;100.00;97694.78;4993172;28;128957;-70
2022/01/14 03:58:44;;;;;;;9.05;2.40;;;3.60;99.90;;;3.30;100.00;97696.06;4975494;28;130500;-69
2022/01/14 04:01:14;;;;;;;6.40;2.50;;;3.60;99.90;;;3.33;100.00;97665.97;4974627;28;126793;-70
2022/01/14 04:03:43;;;;;;;8.07;2.40;;;3.70;99.90;;;3.32;100.00;97648.28;4970790;28;126782;-69
2022/01/14 04:06:13;;;;;;;6.57;2.75;;;3.60;99.90;;;3.34;100.00;97620.06;4993744;28;128997;-70
2022/01/14 04:08:44;;;;;;;9.40;2.25;;;3.70;99.90;;;3.27;100.00;97621.59;4977211;28;128776;-69
2022/01/14 04:11:13;;;;;;;5.72;2.70;;;3.70;99.90;;;3.32;100.00;97619.59;4973717;28;126645;-69
2022/01/14 04:13:47;;;;;;;6.95;2.45;;;3.70;99.90;;;3.35;100.00;97651.16;4987583;28;125751;-69
2022/01/14 04:16:18;;;;;;;6.60;2.13;;;3.80;99.90;;;3.35;100.00;97623.53;4969266;28;130191;-69
2022/01/14 04:18:50;;;;;;;5.30;1.92;;;3.70;99.90;;;3.39;100.00;97624.50;4976219;28;129678;-69
2022/01/14 04:21:19;;;;;;;9.05;2.55;;;3.80;99.90;;;3.36;100.00;97619.75;4978210;28;124592;-69
2022/01/14 04:23:49;;;;;;;7.32;2.67;;;3.80;99.90;;;3.36;100.00;97598.31;4975002;28;125805;-69
2022/01/14 04:26:18;;;;;;;7.18;2.38;;;3.80;99.90;;;3.37;100.00;97610.63;4990181;28;129198;-69
2022/01/14 04:28:47;;;;;;;8.43;2.33;;;3.80;99.90;;;3.32;100.00;97610.75;4976088;28;130390;-69
2022/01/14 04:31:16;;;;;;;4.85;2.38;;;3.80;99.90;;;3.36;100.00;97603.66;4995220;28;126106;-69
2022/01/14 04:33:44;;;;;;;7.88;2.67;;;3.80;99.90;;;3.33;100.00;97593.56;4978670;28;124651;-68
2022/01/14 04:36:13;;;;;;;5.13;2.10;;;3.80;99.90;;;3.40;100.00;97583.19;4976686;28;130637;-69
2022/01/14 04:38:41;;;;;;;7.05;2.20;;;3.90;99.90;;;3.49;100.00;97592.06;5011903;28;129252;-69
2022/01/14 04:41:12;;;;;;;10.73;2.17;;;3.90;99.90;;;3.53;100.00;97593.00;4976596;28;126472;-69
2022/01/14 04:43:41;;;;;;;5.70;2.15;;;3.80;99.90;;;3.54;100.00;97573.13;4977175;28;125693;-69
2022/01/14 04:49:07;;;;;;;7.17;1.97;;;3.90;99.90;;;3.44;100.00;97567.25;4917672;28;129736;-69
2022/01/14 04:51:37;;;;;;;6.10;1.95;;;3.90;99.90;;;3.43;100.00;97539.66;4958377;28;124819;-70
2022/01/14 04:54:06;;;;;;;9.43;2.42;;;3.90;99.90;;;3.58;100.00;97504.34;4978130;28;126355;-69
2022/01/14 04:56:36;;;;;;;5.40;2.20;;;3.90;99.90;;;3.52;100.00;97510.97;4976444;28;130094;-70
2022/01/14 04:59:05;;;;;;;5.70;2.17;;;3.90;99.90;;;3.51;100.00;97528.16;4976324;28;130115;-69
2022/01/14 05:01:33;;;;;;;6.40;2.17;;;3.90;99.90;;;3.56;100.00;97519.16;4977832;28;124542;-69
2022/01/14 05:04:02;;;;;;;8.05;2.35;;;3.90;99.90;;;3.58;100.00;97504.34;4976103;28;125699;-69
2022/01/14 05:06:30;;;;;;;7.63;2.17;;;3.90;99.90;;;3.54;100.00;97498.03;4976614;28;131572;-70
2022/01/14 05:08:59;;;;;;;5.03;1.83;;;3.90;99.90;;;3.62;100.00;97491.09;4976558;28;129661;-70
2022/01/14 05:11:38;;;;;;;6.35;1.77;;;3.90;99.90;;;3.59;100.00;97497.88;4976135;28;125762;-70
2022/01/14 05:14:08;;;;;;;6.90;2.08;;;3.90;99.90;;;3.64;100.00;97491.56;4978465;28;126045;-70
2022/01/14 05:16:37;;;;;;;5.93;2.78;;;3.90;99.90;;;3.67;100.00;97482.09;4975372;28;129974;-69
2022/01/14 05:19:06;;;;;;;4.90;2.10;;;3.90;99.90;;;3.60;100.00;97467.25;4975916;28;129960;-69
2022/01/14 05:21:34;;;;;;;3.33;1.70;;;4.00;99.90;;;3.54;100.00;97460.47;4976264;28;125655;-69
2022/01/14 05:24:03;;;;;;;7.00;2.20;;;4.00;99.90;;;3.54;100.00;97487.28;4975995;28;125625;-68
2022/01/14 05:26:31;;;;;;;5.05;1.67;;;4.10;99.90;;;3.55;100.00;97467.44;4976239;28;129905;-70
2022/01/14 05:29:00;;;;;;;6.05;2.05;;;4.20;99.90;;;3.64;100.00;97450.53;4975638;28;129705;-70
2022/01/14 05:31:50;;;;;;;3.38;1.67;;;4.20;99.90;;;3.66;100.00;97446.44;4975888;28;125517;-68
2022/01/14 05:34:19;;;;;;;6.05;2.80;;;4.20;99.90;;;3.69;100.00;97442.31;4978206;28;125982;-72
2022/01/14 05:36:48;;;;;;;6.82;2.80;;;4.20;99.90;;;3.68;100.00;97430.03;4976056;28;130329;-71
2022/01/14 05:39:20;;;;;;;7.78;2.45;;;4.10;99.90;;;3.67;100.00;97441.84;4975688;28;130550;-70
2022/01/14 05:41:48;;;;;;;6.80;1.67;;;4.20;99.90;;;3.69;100.00;97412.81;4976590;28;126663;-71
2022/01/14 05:44:17;;;;;;;7.53;2.25;;;4.20;99.90;;;3.65;100.00;97418.03;4977112;28;125895;-72
2022/01/14 05:46:47;;;;;;;6.03;2.63;;;4.20;99.90;;;3.79;100.00;97407.13;4976188;28;130235;-72
2022/01/14 05:49:17;;;;;;;7.40;2.00;;;4.20;99.90;;;3.74;100.00;97442.16;4978491;28;130137;-70
2022/01/14 05:51:46;;;;;;;6.22;2.30;;;4.20;99.90;;;3.74;100.00;97431.41;4979072;28;125679;-72
2022/01/14 05:54:15;;;;;;;6.43;2.00;;;4.20;99.90;;;3.78;100.00;97389.44;4976311;28;126553;-73
2022/01/14 05:56:44;;;;;;;4.68;2.05;;;4.20;99.90;;;3.73;100.00;97403.03;4977446;28;129696;-71
2022/01/14 05:59:13;;;;;;;4.97;1.65;;;4.30;99.90;;;3.78;100.00;97405.53;4980067;28;129732;-72
2022/01/14 06:01:42;;;;;;;5.50;1.60;;;4.40;99.00;;;3.75;100.00;97435.69;4982979;28;125674;-71
2022/01/14 06:04:12;;;;;;;5.93;2.00;;;4.40;96.80;;;3.78;100.00;97390.22;4983065;28;125786;-73
2022/01/14 06:06:41;;;;;;;4.25;1.73;;;4.30;97.50;;;3.85;100.00;97379.03;4980868;28;129468;-71
2022/01/14 06:09:09;;;;;;;4.60;1.80;;;4.30;99.90;;;3.78;100.00;97367.97;4981447;28;128521;-72
2022/01/14 06:11:38;;;;;;;5.97;1.73;;;4.30;99.90;;;3.78;100.00;97387.53;4980413;28;125871;-71
2022/01/14 06:14:06;;;;;;;5.05;1.40;;;4.40;99.10;;;3.78;100.00;97373.34;4980700;28;125457;-72
2022/01/14 06:16:35;;;;;;;5.03;1.27;;;4.30;99.90;;;3.77;100.00;97350.28;4979142;28;130217;-72
2022/01/14 06:19:04;;;;;;;5.68;1.90;;;4.20;99.90;;;3.72;100.00;97374.63;4982266;28;129652;-73
2022/01/14 06:21:33;;;;;;;9.18;2.17;;;4.20;99.90;;;3.70;100.00;97360.75;4979932;28;126191;-71
2022/01/14 06:24:02;;;;;;;4.25;1.80;;;4.10;99.90;;;3.68;100.00;97347.66;4979711;28;125406;-71
2022/01/14 06:26:30;;;;;;;4.47;1.80;;;4.20;99.90;;;3.71;100.00;97348.88;4978976;28;129724;-72
2022/01/14 06:28:59;;;;;;;3.83;1.95;;;4.10;99.90;;;3.71;100.00;97324.75;4979022;28;130661;-71
2022/01/14 06:31:27;;;;;;;3.13;1.50;;;4.10;99.90;;;3.73;100.00;97333.28;4977858;28;126802;-72
2022/01/14 06:33:55;;;;;;;2.75;1.48;;;4.10;99.90;;;3.73;100.00;97311.81;4978920;28;126117;-71
2022/01/14 06:36:25;;;;;;;6.38;1.90;;;4.10;99.90;;;3.72;100.00;97320.97;4978577;28;129792;-71
2022/01/14 06:38:55;;;;;;;6.03;1.70;;;4.10;99.90;;;3.78;100.00;97308.97;4978831;28;130074;-71
2022/01/14 06:41:23;;;;;;;3.92;1.42;;;4.10;99.90;;;3.85;100.00;97295.03;4978786;28;127116;-71
2022/01/14 06:43:52;;;;;;;4.75;1.52;;;4.20;99.90;;;3.90;100.00;97284.94;4979100;28;125376;-71
2022/01/14 06:46:20;;;;;;;5.38;2.60;;;4.20;99.90;;;3.92;100.00;97271.97;4984053;28;130348;-72
2022/01/14 06:48:50;;;;;;;6.60;3.05;;;4.30;99.90;;;3.94;100.00;97248.28;4960711;28;129056;-71
2022/01/14 06:51:19;;;;;;;2.05;1.35;;;4.30;99.90;;;3.94;100.00;97228.69;4993816;28;125127;-71
2022/01/14 06:53:48;;;;;;;4.20;1.40;;;4.30;99.90;;;3.96;100.00;97245.28;4960709;28;125995;-71
2022/01/14 06:56:18;;;;;;;4.55;1.42;;;4.30;99.90;;;3.94;100.00;97237.56;4959484;28;130468;-71
2022/01/14 06:58:46;;;;;;;4.40;1.75;;;4.30;99.90;;;3.95;100.00;97244.47;4958905;28;130334;-71
2022/01/14 07:01:15;;;;;;;4.18;1.55;;;4.30;99.90;;;3.96;100.00;97229.19;4959611;28;125917;-71
2022/01/14 07:03:43;;;;;;;3.63;1.50;;;4.20;99.90;;;3.98;100.00;97226.19;4969705;28;125535;-71
2022/01/14 07:06:12;;;;;;;2.67;1.30;;;4.20;99.90;;;3.95;100.00;97228.38;4978339;28;129641;-71
2022/01/14 07:08:40;;;;;;;6.03;1.65;;;4.30;99.90;;;3.99;100.00;97208.94;4977317;28;130003;-71
2022/01/14 07:11:11;;;;;;;4.53;1.50;;;4.20;99.90;;;4.06;100.00;97206.56;4981159;28;126455;-72
2022/01/14 07:13:41;;;;;;;3.78;1.50;;;4.10;99.90;;;3.94;100.00;97204.56;4978636;28;125315;-71
2022/01/14 07:16:09;;;;;;;2.85;1.58;;;4.10;99.90;;;3.99;100.00;97195.53;4979440;28;129822;-72
2022/01/14 07:18:37;;;;;;;2.92;1.58;;;4.20;99.90;;;3.94;100.00;97207.22;4978080;28;129772;-72
2022/01/14 07:21:06;;;;;;;4.82;1.98;;;4.10;99.90;;;3.93;100.00;97187.66;4977966;28;126279;-72
2022/01/14 07:23:35;;;;;;;5.82;2.47;;;4.20;99.90;;;3.96;100.00;97187.03;4977643;28;126101;-72
2022/01/14 07:26:03;;;;;;;5.60;1.92;;;4.20;99.90;;;4.00;100.00;97178.31;4978275;28;130389;-72
2022/01/14 07:28:31;;;;;;;4.13;2.05;;;4.20;99.90;;;4.00;100.00;97171.06;4978346;28;130176;-72
2022/01/14 07:31:01;;;;;;;5.22;2.58;;;4.20;99.90;;;4.05;100.00;97159.34;4978223;28;126158;-72
2022/01/14 07:33:30;;;;;;;3.97;2.13;;;4.20;99.90;;;4.01;100.00;97161.91;4979975;28;125861;-73
2022/01/14 07:35:58;;;;;;;3.75;1.75;;;4.20;99.90;;;4.00;100.00;97154.16;4980752;28;129913;-72
2022/01/14 07:38:26;;;;;;;5.00;1.75;;;4.30;99.90;;;4.10;100.00;97151.91;4978577;28;129839;-72
2022/01/14 07:40:55;;;;;;;3.42;1.48;;;4.20;99.90;;;4.11;100.00;97136.56;4979901;28;126092;-71
2022/01/14 07:43:23;;;;;;;2.78;1.30;;;4.30;99.90;;;4.12;100.00;97125.50;4980274;28;127764;-71
2022/01/14 07:45:52;;;;;;;3.60;1.48;;;4.30;99.90;;;4.17;100.00;97115.69;4955998;28;129070;-71
2022/01/14 07:48:23;;;;;;;3.88;1.98;;;4.30;99.90;;;4.22;100.00;97113.59;4958010;28;129891;-71
2022/01/14 07:50:51;;;;;;;2.10;1.25;;;4.30;99.90;;;4.23;100.00;97114.38;4959280;28;125871;-71
2022/01/14 07:53:20;;;;;;;2.55;1.40;;;4.30;99.90;;;4.28;100.00;97101.53;4958986;28;125407;-72
2022/01/14 07:55:49;;;;;;;2.83;1.40;;;4.30;99.90;;;4.38;100.00;97104.94;4961169;28;131029;-71
2022/01/14 07:58:18;;;;;;;4.22;2.08;;;4.40;99.90;;;4.42;100.00;97097.78;4959338;28;131274;-71
2022/01/14 08:00:47;;;;;;;3.40;1.75;;;4.40;99.90;;;4.33;100.00;97092.50;4959358;28;124744;-70
2022/01/14 08:03:16;;;;;;;4.38;2.10;;;4.40;99.90;;;4.35;100.00;97063.44;4958014;28;125471;-71
2022/01/14 08:05:47;;;;;;;5.65;2.30;;;4.40;99.90;;;4.42;100.00;97070.94;4957828;28;130434;-70
2022/01/14 08:08:15;;;;;;;5.35;3.10;;;4.40;99.90;;;4.38;100.00;97072.69;4958890;28;129201;-70
2022/01/14 08:10:44;;;;;;;9.82;6.57;;;4.40;99.90;;;4.43;100.00;97059.09;4957841;28;126784;-69
2022/01/14 08:13:13;;;;;;;14.15;9.82;;;4.50;99.90;;;4.67;100.00;97026.94;4957387;28;126078;-70
2022/01/14 08:15:41;;;;;;;5.03;2.20;;;4.50;99.90;;;4.74;100.00;97020.22;4956671;28;130338;-70
2022/01/14 08:18:10;;;;;;;5.40;3.00;;;4.50;99.90;;;4.68;100.00;97028.47;4956970;28;130205;-68
2022/01/14 08:20:38;;;;;;;5.68;3.40;;;4.60;99.90;;;4.72;100.00;97017.06;4957120;28;126783;-70
2022/01/14 08:23:09;;;;;;;5.90;2.55;;;4.60;99.90;;;4.73;100.00;97029.41;4957216;28;126126;-70
2022/01/14 08:25:38;;;;;;;4.18;1.60;;;4.60;99.90;;;4.83;100.00;97023.56;4956755;28;129867;-70
2022/01/14 08:28:06;;;;;;;4.35;2.35;;;4.60;99.90;;;4.81;100.00;97023.13;4960005;28;129568;-70
2022/01/14 08:30:35;;;;;;;4.55;2.08;;;4.60;99.90;;;4.78;100.00;97007.69;4959147;28;125574;-70
2022/01/14 08:33:03;;;;;;;7.95;5.65;;;4.70;99.90;;;4.89;100.00;97032.22;4958082;28;125833;-70
2022/01/14 08:35:33;;;;;;;5.88;2.83;;;4.70;99.90;;;4.80;100.00;97032.31;4959014;28;130418;-70
2022/01/14 08:38:01;;;;;;;3.95;1.80;;;4.70;99.90;;;4.86;100.00;97001.41;4958561;28;130019;-70
2022/01/14 08:40:32;;;;;;;4.80;1.50;;;4.70;99.90;;;4.87;100.00;96989.56;4956623;28;125569;-71
2022/01/14 08:43:01;;;;;;;4.35;1.73;;;4.80;99.90;;;4.93;100.00;97006.25;4957580;28;125496;-70
2022/01/14 08:45:30;;;;;;;4.88;1.67;;;4.70;99.90;;;4.90;100.00;97002.31;4957921;28;129703;-71
2022/01/14 08:47:58;;;;;;;1.70;1.00;;;4.80;99.90;;;4.90;100.00;96991.56;4957144;28;129736;-70
2022/01/14 08:50:34;;;;;;;3.55;1.10;;;4.80;99.90;;;4.85;100.00;96999.84;4959155;28;125787;-70
2022/01/14 08:53:04;;;;;;;4.55;1.77;;;4.80;99.90;;;5.04;100.00;96961.66;4957464;28;126064;-71
2022/01/14 08:55:35;;;;;;;3.35;1.52;;;4.80;99.90;;;4.98;100.00;96950.34;4957274;28;129864;-71
2022/01/14 08:58:05;;;;;;;2.17;1.20;;;4.80;99.90;;;4.87;100.00;96970.72;4957271;28;130404;-72
2022/01/14 09:00:34;;;;;;;2.92;1.30;;;4.80;99.90;;;4.96;100.00;96943.75;4958601;28;126347;-71
2022/01/14 09:03:04;;;;;;;1.65;1.10;;;4.80;99.90;;;4.99;100.00;96933.09;4958853;28;126209;-72
2022/01/14 09:05:33;;;;;;;4.68;1.70;;;4.80;99.90;;;5.02;100.00;96945.88;4956416;28;130096;-71
2022/01/14 09:08:03;;;;;;;2.53;1.50;;;4.70;99.90;;;4.83;100.00;96943.75;4956833;28;130391;-71
2022/01/14 09:10:31;;;;;;;2.65;1.10;;;4.70;99.90;;;4.85;100.00;96930.75;4956646;28;125772;-69
2022/01/14 09:13:02;;;;;;;2.45;1.40;;;4.80;99.90;;;4.89;100.00;96913.97;4956278;28;126076;-70
2022/01/14 09:15:30;;;;;;;2.55;1.50;;;4.80;99.90;;;4.95;100.00;96926.84;4955939;28;129916;-70
2022/01/14 09:17:58;;;;;;;3.90;1.00;;;4.80;99.90;;;4.93;100.00;96915.63;4956354;28;130720;-69
2022/01/14 09:20:28;;;;;;;3.35;1.50;;;4.80;99.90;;;4.79;100.00;96885.66;4963236;28;126589;-69
2022/01/14 09:22:58;;;;;;;3.92;1.90;;;4.80;99.90;;;4.85;100.00;96919.25;4975796;28;125516;-68
2022/01/14 09:25:27;;;;;;;7.82;4.75;;;4.80;99.90;;;4.85;100.00;96903.88;4976219;28;130135;-69
2022/01/14 09:27:56;;;;;;;18.50;11.15;;;4.80;99.90;;;4.92;100.00;96871.06;4975260;28;130095;-69
2022/01/14 09:30:26;;;;;;;26.67;18.05;;;4.90;99.90;;;5.07;100.00;96863.44;4977679;28;125347;-70
2022/01/14 09:32:54;;;;;;;18.65;12.65;;;5.00;99.90;;;5.18;100.00;96851.09;4981580;28;125167;-69
2022/01/14 09:35:23;;;;;;;11.52;6.35;;;5.10;99.90;;;5.25;100.00;96862.06;4982699;28;129620;-70
2022/01/14 09:37:52;;;;;;;11.95;7.13;;;5.30;99.90;;;5.30;100.00;96842.97;4981644;28;130248;-69
2022/01/14 09:40:21;;;;;;;7.22;3.13;;;5.30;99.90;;;5.31;100.00;96825.69;4982234;28;125936;-69
2022/01/14 09:42:51;;;;;;;33.83;20.15;;;5.30;99.90;;;5.36;100.00;96814.72;4984917;28;125450;-69
2022/01/14 09:45:21;;;;;;;70.20;43.17;;;5.40;99.90;;;5.40;100.00;96779.84;4981320;28;130840;-70
2022/01/14 09:47:52;;;;;;;6.93;3.70;;;5.40;99.90;;;5.38;100.00;96790.94;4981052;28;130427;-69
2022/01/14 09:50:24;;;;;;;14.00;9.13;;;5.50;99.90;;;5.46;100.00;96812.66;4983383;28;126110;-69
2022/01/14 09:52:54;;;;;;;8.25;2.95;;;5.50;99.90;;;5.40;100.00;96798.69;4981738;28;125882;-68
2022/01/14 09:55:24;;;;;;;7.72;1.90;;;5.60;99.90;;;5.64;100.00;96776.25;4981712;28;130669;-68
2022/01/14 09:57:54;;;;;;;6.45;2.50;;;5.70;99.10;;;5.76;100.00;96778.09;4985723;28;102611;-69
2022/01/14 10:00:23;;;;;;;19.88;12.23;;;5.70;97.60;;;5.45;100.00;96784.19;4982389;28;127278;-69
2022/01/14 10:02:53;;;;;;;11.65;3.00;;;5.50;99.90;;;5.15;100.00;96792.63;4982067;28;126746;-69
2022/01/14 10:05:39;;;;;;;5.75;1.60;;;5.10;99.90;;;4.87;100.00;96976.13;4981526;28;131273;-69
2022/01/14 10:08:17;;;;;;;7.32;2.10;;;4.90;99.90;;;3.37;100.00;96959.09;4986736;28;129957;-72
2022/01/14 10:11:04;;;;;;;0.85;0.80;;;3.50;99.90;;;2.80;100.00;96944.25;2977483;28;52094739;-77
2022/01/14 10:13:34;;;;;;;6.43;2.45;;;2.90;99.90;;;2.97;100.00;96981.69;5013990;28;124993;-76
2022/01/14 10:16:06;;;;;;;4.03;1.80;;;2.80;99.90;;;2.57;100.00;96941.06;4986572;28;129073;-77
2022/01/14 10:18:38;;;;;;;4.97;2.47;;;2.80;99.90;;;2.78;100.00;96925.06;4985006;28;129650;-79
2022/01/14 10:21:11;;;;;;;8.85;3.55;;;2.90;99.90;;;2.74;100.00;96930.25;4985041;28;125676;-75
2022/01/14 10:23:45;;;;;;;5.55;2.88;;;2.80;99.90;;;3.06;100.00;96933.41;4984303;28;126117;-73
2022/01/14 10:26:15;;;;;;;8.02;3.85;;;2.90;99.90;;;3.08;100.00;96933.88;4999080;28;130112;-74
2022/01/14 10:28:58;;;;;;;12.70;4.80;;;3.00;99.90;;;3.56;100.00;96964.00;4986403;28;129558;-75
2022/01/14 10:31:33;;;;;;;4.68;1.60;;;3.20;99.90;;;3.61;97.43;96931.59;4984887;28;125527;-75
2022/01/14 10:34:17;;;;;;;4.93;1.42;;;3.10;99.90;;;3.23;96.86;96935.97;4984828;28;125039;-74
2022/01/14 10:36:48;;;;;;;2.13;1.10;;;2.80;99.90;;;3.10;96.45;96915.59;4983088;28;129603;-73
2022/01/14 10:39:22;;;;;;;2.25;0.90;;;2.70;99.90;;;2.92;96.62;96973.84;4985714;28;129784;-73
2022/01/14 10:41:51;;;;;;;2.67;1.00;;;2.60;99.90;;;2.92;98.18;96927.50;4983067;28;126462;-74
2022/01/14 10:44:34;;;;;;;2.60;1.10;;;2.60;99.50;;;2.95;97.32;96940.25;4978526;28;126919;-73
2022/01/14 10:47:15;;;;;;;3.40;1.30;;;2.60;96.90;;;3.14;96.00;96935.25;4980048;28;130877;-74
2022/01/14 10:49:47;;;;;;;3.83;1.77;;;2.50;92.20;;;2.84;95.81;96945.97;4981918;28;130219;-71